sensor_id;sensor_type;location;lat;lon;timestamp;P1;durP1;ratioP1;P2;durP2;ratioP2
34978;SDS011;21185;50.978;13.720;2023-05-07T00:04:25;16.52;;;6.28;;
34978;SDS011;21185;50.978;13.720;2023-05-07T00:09:28;17.08;;;6.45;;
34978;SDS011;21185;50.978;13.720;2023-05-07T00:14:30;14.95;;;5.68;;
34978;SDS011;21185;50.978;13.720;2023-05-07T00:19:32;13.55;;;6.18;;
34978;SDS011;21185;50.978;13.720;2023-05-07T00:24:34;13.18;;;6.22;;
34978;SDS011;21185;50.978;13.720;2023-05-07T00:29:36;12.93;;;6.10;;
34978;SDS011;21185;50.978;13.720;2023-05-07T00:34:38;10.27;;;5.25;;
34978;SDS011;21185;50.978;13.720;2023-05-07T00:39:41;11.68;;;5.78;;
34978;SDS011;21185;50.978;13.720;2023-05-07T00:44:43;13.68;;;5.85;;
34978;SDS011;21185;50.978;13.720;2023-05-07T00:49:44;12.30;;;6.50;;
34978;SDS011;21185;50.978;13.720;2023-05-07T00:54:47;13.93;;;6.55;;
34978;SDS011;21185;50.978;13.720;2023-05-07T00:59:50;13.57;;;6.75;;
34978;SDS011;21185;50.978;13.720;2023-05-07T01:04:53;14.30;;;6.82;;
34978;SDS011;21185;50.978;13.720;2023-05-07T01:10:00;14.32;;;7.28;;
34978;SDS011;21185;50.978;13.720;2023-05-07T01:15:03;14.48;;;6.35;;
34978;SDS011;21185;50.978;13.720;2023-05-07T01:20:07;13.98;;;6.75;;
34978;SDS011;21185;50.978;13.720;2023-05-07T01:25:12;14.13;;;6.90;;
34978;SDS011;21185;50.978;13.720;2023-05-07T01:30:20;14.00;;;6.47;;
34978;SDS011;21185;50.978;13.720;2023-05-07T01:35:28;15.40;;;7.60;;
34978;SDS011;21185;50.978;13.720;2023-05-07T01:40:34;15.52;;;7.38;;
34978;SDS011;21185;50.978;13.720;2023-05-07T01:45:36;16.50;;;6.82;;
34978;SDS011;21185;50.978;13.720;2023-05-07T01:50:39;17.50;;;7.55;;
34978;SDS011;21185;50.978;13.720;2023-05-07T01:55:42;17.05;;;6.70;;
34978;SDS011;21185;50.978;13.720;2023-05-07T02:00:44;19.17;;;7.70;;
34978;SDS011;21185;50.978;13.720;2023-05-07T02:05:46;15.50;;;7.35;;
34978;SDS011;21185;50.978;13.720;2023-05-07T02:11:00;17.65;;;7.70;;
34978;SDS011;21185;50.978;13.720;2023-05-07T02:16:03;17.85;;;7.55;;
34978;SDS011;21185;50.978;13.720;2023-05-07T02:21:06;15.98;;;7.25;;
34978;SDS011;21185;50.978;13.720;2023-05-07T02:26:08;15.60;;;7.80;;
34978;SDS011;21185;50.978;13.720;2023-05-07T02:31:11;16.02;;;7.43;;
34978;SDS011;21185;50.978;13.720;2023-05-07T02:36:13;22.92;;;8.65;;
34978;SDS011;21185;50.978;13.720;2023-05-07T02:41:30;16.42;;;8.43;;
34978;SDS011;21185;50.978;13.720;2023-05-07T02:46:32;16.55;;;8.43;;
34978;SDS011;21185;50.978;13.720;2023-05-07T02:51:40;19.70;;;8.20;;
34978;SDS011;21185;50.978;13.720;2023-05-07T02:56:47;17.38;;;7.82;;
34978;SDS011;21185;50.978;13.720;2023-05-07T03:01:49;15.70;;;8.40;;
34978;SDS011;21185;50.978;13.720;2023-05-07T03:06:52;18.67;;;7.82;;
34978;SDS011;21185;50.978;13.720;2023-05-07T03:11:53;16.40;;;7.57;;
34978;SDS011;21185;50.978;13.720;2023-05-07T03:16:55;15.32;;;7.70;;
34978;SDS011;21185;50.978;13.720;2023-05-07T03:21:57;19.27;;;8.20;;
34978;SDS011;21185;50.978;13.720;2023-05-07T03:27:00;18.20;;;7.72;;
34978;SDS011;21185;50.978;13.720;2023-05-07T03:32:03;17.85;;;7.68;;
34978;SDS011;21185;50.978;13.720;2023-05-07T03:37:06;12.35;;;6.55;;
34978;SDS011;21185;50.978;13.720;2023-05-07T03:42:08;15.02;;;7.43;;
34978;SDS011;21185;50.978;13.720;2023-05-07T03:47:10;14.20;;;6.50;;
34978;SDS011;21185;50.978;13.720;2023-05-07T03:52:13;15.52;;;6.05;;
34978;SDS011;21185;50.978;13.720;2023-05-07T03:57:15;12.60;;;6.13;;
34978;SDS011;21185;50.978;13.720;2023-05-07T04:02:17;9.25;;;4.72;;
34978;SDS011;21185;50.978;13.720;2023-05-07T04:07:19;8.07;;;3.90;;
34978;SDS011;21185;50.978;13.720;2023-05-07T04:12:24;8.68;;;4.43;;
34978;SDS011;21185;50.978;13.720;2023-05-07T04:17:26;9.57;;;4.40;;
34978;SDS011;21185;50.978;13.720;2023-05-07T04:22:28;9.60;;;4.60;;
34978;SDS011;21185;50.978;13.720;2023-05-07T04:27:30;8.15;;;4.38;;
34978;SDS011;21185;50.978;13.720;2023-05-07T04:32:33;12.10;;;4.95;;
34978;SDS011;21185;50.978;13.720;2023-05-07T04:37:35;7.70;;;4.30;;
34978;SDS011;21185;50.978;13.720;2023-05-07T04:42:38;9.70;;;5.13;;
34978;SDS011;21185;50.978;13.720;2023-05-07T04:47:41;12.95;;;5.35;;
34978;SDS011;21185;50.978;13.720;2023-05-07T04:52:44;12.88;;;5.75;;
34978;SDS011;21185;50.978;13.720;2023-05-07T04:57:47;14.68;;;5.72;;
34978;SDS011;21185;50.978;13.720;2023-05-07T05:02:50;8.75;;;5.20;;
34978;SDS011;21185;50.978;13.720;2023-05-07T05:07:54;13.13;;;4.93;;
34978;SDS011;21185;50.978;13.720;2023-05-07T05:12:57;10.52;;;5.43;;
34978;SDS011;21185;50.978;13.720;2023-05-07T05:18:01;10.23;;;4.65;;
34978;SDS011;21185;50.978;13.720;2023-05-07T05:23:04;17.92;;;5.43;;
34978;SDS011;21185;50.978;13.720;2023-05-07T05:28:08;12.75;;;5.60;;
34978;SDS011;21185;50.978;13.720;2023-05-07T05:33:10;10.77;;;4.57;;
34978;SDS011;21185;50.978;13.720;2023-05-07T05:38:12;13.32;;;4.95;;
34978;SDS011;21185;50.978;13.720;2023-05-07T05:43:15;12.60;;;5.95;;
34978;SDS011;21185;50.978;13.720;2023-05-07T05:48:17;10.55;;;5.15;;
34978;SDS011;21185;50.978;13.720;2023-05-07T05:53:19;9.32;;;5.25;;
34978;SDS011;21185;50.978;13.720;2023-05-07T05:58:21;12.48;;;5.32;;
34978;SDS011;21185;50.978;13.720;2023-05-07T06:03:30;9.65;;;5.30;;
34978;SDS011;21185;50.978;13.720;2023-05-07T06:08:37;10.40;;;5.80;;
34978;SDS011;21185;50.978;13.720;2023-05-07T06:13:39;10.23;;;5.43;;
34978;SDS011;21185;50.978;13.720;2023-05-07T06:18:41;18.33;;;7.75;;
34978;SDS011;21185;50.978;13.720;2023-05-07T06:23:43;13.70;;;4.95;;
34978;SDS011;21185;50.978;13.720;2023-05-07T06:28:46;13.38;;;6.13;;
34978;SDS011;21185;50.978;13.720;2023-05-07T06:33:50;10.98;;;5.72;;
34978;SDS011;21185;50.978;13.720;2023-05-07T06:38:52;11.40;;;5.03;;
34978;SDS011;21185;50.978;13.720;2023-05-07T06:43:55;10.60;;;4.68;;
34978;SDS011;21185;50.978;13.720;2023-05-07T06:49:19;7.88;;;4.20;;
34978;SDS011;21185;50.978;13.720;2023-05-07T06:54:23;8.07;;;4.03;;
34978;SDS011;21185;50.978;13.720;2023-05-07T06:59:26;9.30;;;4.03;;
34978;SDS011;21185;50.978;13.720;2023-05-07T07:04:28;9.23;;;3.47;;
34978;SDS011;21185;50.978;13.720;2023-05-07T07:09:39;6.07;;;3.30;;
34978;SDS011;21185;50.978;13.720;2023-05-07T07:14:42;5.45;;;3.03;;
34978;SDS011;21185;50.978;13.720;2023-05-07T07:19:44;7.88;;;3.90;;
34978;SDS011;21185;50.978;13.720;2023-05-07T07:24:46;5.68;;;3.05;;
34978;SDS011;21185;50.978;13.720;2023-05-07T07:29:51;6.40;;;3.25;;
34978;SDS011;21185;50.978;13.720;2023-05-07T07:34:53;8.82;;;4.20;;
34978;SDS011;21185;50.978;13.720;2023-05-07T07:39:55;7.30;;;4.13;;
34978;SDS011;21185;50.978;13.720;2023-05-07T07:44:58;8.60;;;4.40;;
34978;SDS011;21185;50.978;13.720;2023-05-07T07:50:03;8.38;;;3.67;;
34978;SDS011;21185;50.978;13.720;2023-05-07T07:55:05;7.72;;;4.18;;
34978;SDS011;21185;50.978;13.720;2023-05-07T08:00:08;6.35;;;3.55;;
34978;SDS011;21185;50.978;13.720;2023-05-07T08:05:17;5.97;;;3.65;;
34978;SDS011;21185;50.978;13.720;2023-05-07T08:10:21;5.78;;;3.10;;
34978;SDS011;21185;50.978;13.720;2023-05-07T08:15:28;6.45;;;3.22;;
34978;SDS011;21185;50.978;13.720;2023-05-07T08:20:30;10.63;;;2.92;;
34978;SDS011;21185;50.978;13.720;2023-05-07T08:25:33;5.35;;;2.40;;
34978;SDS011;21185;50.978;13.720;2023-05-07T08:30:36;3.38;;;2.17;;
34978;SDS011;21185;50.978;13.720;2023-05-07T08:35:38;7.00;;;2.60;;
34978;SDS011;21185;50.978;13.720;2023-05-07T08:40:42;4.90;;;2.60;;
34978;SDS011;21185;50.978;13.720;2023-05-07T08:45:53;4.20;;;2.50;;
34978;SDS011;21185;50.978;13.720;2023-05-07T08:51:01;3.38;;;2.35;;
34978;SDS011;21185;50.978;13.720;2023-05-07T08:56:03;4.75;;;2.70;;
34978;SDS011;21185;50.978;13.720;2023-05-07T09:01:10;3.33;;;2.35;;
34978;SDS011;21185;50.978;13.720;2023-05-07T09:06:21;5.43;;;3.38;;
34978;SDS011;21185;50.978;13.720;2023-05-07T09:11:23;4.03;;;2.78;;
34978;SDS011;21185;50.978;13.720;2023-05-07T09:16:28;4.65;;;2.80;;
34978;SDS011;21185;50.978;13.720;2023-05-07T09:21:34;4.82;;;2.90;;
34978;SDS011;21185;50.978;13.720;2023-05-07T09:26:40;5.68;;;3.05;;
34978;SDS011;21185;50.978;13.720;2023-05-07T09:31:44;8.55;;;4.10;;
34978;SDS011;21185;50.978;13.720;2023-05-07T09:36:49;5.05;;;3.08;;
34978;SDS011;21185;50.978;13.720;2023-05-07T09:41:51;8.27;;;3.03;;
34978;SDS011;21185;50.978;13.720;2023-05-07T09:47:05;5.68;;;2.90;;
34978;SDS011;21185;50.978;13.720;2023-05-07T09:52:14;5.97;;;3.10;;
34978;SDS011;21185;50.978;13.720;2023-05-07T09:57:23;5.97;;;3.20;;
34978;SDS011;21185;50.978;13.720;2023-05-07T10:02:29;9.40;;;4.05;;
34978;SDS011;21185;50.978;13.720;2023-05-07T10:07:34;6.72;;;3.80;;
34978;SDS011;21185;50.978;13.720;2023-05-07T10:12:41;6.57;;;3.70;;
34978;SDS011;21185;50.978;13.720;2023-05-07T10:17:49;6.10;;;3.33;;
34978;SDS011;21185;50.978;13.720;2023-05-07T10:22:56;5.70;;;3.30;;
34978;SDS011;21185;50.978;13.720;2023-05-07T10:28:08;6.75;;;3.28;;
34978;SDS011;21185;50.978;13.720;2023-05-07T10:33:17;8.32;;;3.42;;
34978;SDS011;21185;50.978;13.720;2023-05-07T10:38:26;6.05;;;3.08;;
34978;SDS011;21185;50.978;13.720;2023-05-07T10:43:42;6.70;;;3.50;;
34978;SDS011;21185;50.978;13.720;2023-05-07T10:54:34;8.93;;;3.92;;
34978;SDS011;21185;50.978;13.720;2023-05-07T10:59:43;8.90;;;4.07;;
34978;SDS011;21185;50.978;13.720;2023-05-07T11:15:56;8.25;;;3.50;;
34978;SDS011;21185;50.978;13.720;2023-05-07T11:21:09;5.07;;;2.95;;
34978;SDS011;21185;50.978;13.720;2023-05-07T11:26:22;6.25;;;3.83;;
34978;SDS011;21185;50.978;13.720;2023-05-07T11:31:27;7.85;;;3.88;;
34978;SDS011;21185;50.978;13.720;2023-05-07T11:36:34;6.90;;;3.85;;
34978;SDS011;21185;50.978;13.720;2023-05-07T11:41:39;9.68;;;4.75;;
34978;SDS011;21185;50.978;13.720;2023-05-07T11:46:44;7.32;;;4.78;;
34978;SDS011;21185;50.978;13.720;2023-05-07T11:51:46;7.72;;;3.53;;
34978;SDS011;21185;50.978;13.720;2023-05-07T11:56:48;5.40;;;3.42;;
34978;SDS011;21185;50.978;13.720;2023-05-07T12:01:50;5.78;;;3.45;;
34978;SDS011;21185;50.978;13.720;2023-05-07T12:06:55;5.00;;;3.05;;
34978;SDS011;21185;50.978;13.720;2023-05-07T12:11:58;5.55;;;3.58;;
34978;SDS011;21185;50.978;13.720;2023-05-07T12:17:05;8.00;;;3.92;;
34978;SDS011;21185;50.978;13.720;2023-05-07T12:22:09;6.70;;;3.55;;
34978;SDS011;21185;50.978;13.720;2023-05-07T12:27:12;8.27;;;3.88;;
34978;SDS011;21185;50.978;13.720;2023-05-07T12:32:15;6.90;;;3.80;;
34978;SDS011;21185;50.978;13.720;2023-05-07T12:37:22;5.38;;;3.33;;
34978;SDS011;21185;50.978;13.720;2023-05-07T12:42:32;9.57;;;3.75;;
34978;SDS011;21185;50.978;13.720;2023-05-07T12:47:38;6.72;;;4.03;;
34978;SDS011;21185;50.978;13.720;2023-05-07T12:52:40;9.30;;;3.25;;
34978;SDS011;21185;50.978;13.720;2023-05-07T12:57:43;6.60;;;4.30;;
34978;SDS011;21185;50.978;13.720;2023-05-07T13:02:49;7.20;;;4.03;;
34978;SDS011;21185;50.978;13.720;2023-05-07T13:07:55;5.50;;;3.22;;
34978;SDS011;21185;50.978;13.720;2023-05-07T13:12:57;8.00;;;4.50;;
34978;SDS011;21185;50.978;13.720;2023-05-07T13:17:59;5.72;;;3.45;;
34978;SDS011;21185;50.978;13.720;2023-05-07T13:23:01;7.53;;;4.05;;
34978;SDS011;21185;50.978;13.720;2023-05-07T13:28:05;6.57;;;4.20;;
34978;SDS011;21185;50.978;13.720;2023-05-07T13:33:12;6.75;;;3.67;;
34978;SDS011;21185;50.978;13.720;2023-05-07T13:38:14;7.65;;;4.13;;
34978;SDS011;21185;50.978;13.720;2023-05-07T13:43:17;7.07;;;3.58;;
34978;SDS011;21185;50.978;13.720;2023-05-07T13:48:20;4.60;;;3.22;;
34978;SDS011;21185;50.978;13.720;2023-05-07T13:53:22;5.13;;;3.47;;
34978;SDS011;21185;50.978;13.720;2023-05-07T13:58:24;5.85;;;3.45;;
34978;SDS011;21185;50.978;13.720;2023-05-07T14:03:25;5.72;;;3.30;;
34978;SDS011;21185;50.978;13.720;2023-05-07T14:08:28;8.15;;;3.55;;
34978;SDS011;21185;50.978;13.720;2023-05-07T14:13:32;5.78;;;3.53;;
34978;SDS011;21185;50.978;13.720;2023-05-07T14:18:36;6.55;;;3.28;;
34978;SDS011;21185;50.978;13.720;2023-05-07T14:23:40;7.88;;;3.53;;
34978;SDS011;21185;50.978;13.720;2023-05-07T14:28:42;5.45;;;3.55;;
34978;SDS011;21185;50.978;13.720;2023-05-07T14:33:47;6.05;;;3.30;;
34978;SDS011;21185;50.978;13.720;2023-05-07T14:38:54;5.00;;;2.83;;
34978;SDS011;21185;50.978;13.720;2023-05-07T14:43:56;4.70;;;2.80;;
34978;SDS011;21185;50.978;13.720;2023-05-07T14:48:58;4.97;;;2.47;;
34978;SDS011;21185;50.978;13.720;2023-05-07T14:54:00;3.92;;;2.35;;
34978;SDS011;21185;50.978;13.720;2023-05-07T14:59:03;3.80;;;2.17;;
34978;SDS011;21185;50.978;13.720;2023-05-07T15:04:05;4.25;;;2.55;;
34978;SDS011;21185;50.978;13.720;2023-05-07T15:09:07;4.32;;;2.60;;
34978;SDS011;21185;50.978;13.720;2023-05-07T15:14:10;3.83;;;2.47;;
34978;SDS011;21185;50.978;13.720;2023-05-07T15:19:12;6.38;;;2.40;;
34978;SDS011;21185;50.978;13.720;2023-05-07T15:24:16;3.95;;;2.75;;
34978;SDS011;21185;50.978;13.720;2023-05-07T15:29:18;3.72;;;2.40;;
34978;SDS011;21185;50.978;13.720;2023-05-07T15:34:20;5.53;;;2.80;;
34978;SDS011;21185;50.978;13.720;2023-05-07T15:39:24;4.93;;;3.78;;
34978;SDS011;21185;50.978;13.720;2023-05-07T15:44:26;7.03;;;3.13;;
34978;SDS011;21185;50.978;13.720;2023-05-07T15:49:30;6.57;;;3.15;;
34978;SDS011;21185;50.978;13.720;2023-05-07T15:54:31;8.05;;;3.45;;
34978;SDS011;21185;50.978;13.720;2023-05-07T15:59:33;6.30;;;3.03;;
34978;SDS011;21185;50.978;13.720;2023-05-07T16:04:36;4.07;;;2.83;;
34978;SDS011;21185;50.978;13.720;2023-05-07T16:09:38;4.18;;;2.88;;
34978;SDS011;21185;50.978;13.720;2023-05-07T16:14:41;5.90;;;3.17;;
34978;SDS011;21185;50.978;13.720;2023-05-07T16:19:42;6.53;;;3.72;;
34978;SDS011;21185;50.978;13.720;2023-05-07T16:24:44;8.35;;;3.47;;
34978;SDS011;21185;50.978;13.720;2023-05-07T16:29:47;9.23;;;3.55;;
34978;SDS011;21185;50.978;13.720;2023-05-07T16:34:49;4.22;;;2.97;;
34978;SDS011;21185;50.978;13.720;2023-05-07T16:39:52;6.13;;;3.33;;
34978;SDS011;21185;50.978;13.720;2023-05-07T16:44:54;5.38;;;3.25;;
34978;SDS011;21185;50.978;13.720;2023-05-07T16:49:56;6.40;;;3.60;;
34978;SDS011;21185;50.978;13.720;2023-05-07T16:54:58;6.32;;;3.67;;
34978;SDS011;21185;50.978;13.720;2023-05-07T17:00:02;7.45;;;4.03;;
34978;SDS011;21185;50.978;13.720;2023-05-07T17:05:08;5.78;;;3.22;;
34978;SDS011;21185;50.978;13.720;2023-05-07T17:10:10;9.20;;;3.60;;
34978;SDS011;21185;50.978;13.720;2023-05-07T17:15:12;6.93;;;4.00;;
34978;SDS011;21185;50.978;13.720;2023-05-07T17:20:14;4.45;;;3.13;;
34978;SDS011;21185;50.978;13.720;2023-05-07T17:25:16;4.63;;;3.15;;
34978;SDS011;21185;50.978;13.720;2023-05-07T17:30:18;6.40;;;3.58;;
34978;SDS011;21185;50.978;13.720;2023-05-07T17:35:20;6.10;;;3.50;;
34978;SDS011;21185;50.978;13.720;2023-05-07T17:40:22;7.45;;;4.10;;
34978;SDS011;21185;50.978;13.720;2023-05-07T17:45:24;6.57;;;3.90;;
34978;SDS011;21185;50.978;13.720;2023-05-07T17:50:26;8.00;;;3.72;;
34978;SDS011;21185;50.978;13.720;2023-05-07T17:55:29;5.68;;;3.45;;
34978;SDS011;21185;50.978;13.720;2023-05-07T18:00:33;7.00;;;3.25;;
34978;SDS011;21185;50.978;13.720;2023-05-07T18:05:36;6.93;;;3.67;;
34978;SDS011;21185;50.978;13.720;2023-05-07T18:10:40;10.48;;;4.00;;
34978;SDS011;21185;50.978;13.720;2023-05-07T18:15:43;7.13;;;3.50;;
34978;SDS011;21185;50.978;13.720;2023-05-07T18:20:49;7.60;;;4.00;;
34978;SDS011;21185;50.978;13.720;2023-05-07T18:25:54;7.20;;;4.07;;
34978;SDS011;21185;50.978;13.720;2023-05-07T18:30:56;6.07;;;3.20;;
34978;SDS011;21185;50.978;13.720;2023-05-07T18:35:57;6.28;;;3.67;;
34978;SDS011;21185;50.978;13.720;2023-05-07T18:41:02;6.43;;;3.72;;
34978;SDS011;21185;50.978;13.720;2023-05-07T18:46:04;7.32;;;4.38;;
34978;SDS011;21185;50.978;13.720;2023-05-07T18:51:07;7.80;;;4.47;;
34978;SDS011;21185;50.978;13.720;2023-05-07T18:56:13;6.32;;;3.85;;
34978;SDS011;21185;50.978;13.720;2023-05-07T19:01:14;8.35;;;4.20;;
34978;SDS011;21185;50.978;13.720;2023-05-07T19:06:16;7.75;;;4.05;;
34978;SDS011;21185;50.978;13.720;2023-05-07T19:11:18;6.32;;;4.43;;
34978;SDS011;21185;50.978;13.720;2023-05-07T19:16:25;9.98;;;3.88;;
34978;SDS011;21185;50.978;13.720;2023-05-07T19:21:27;7.38;;;3.90;;
34978;SDS011;21185;50.978;13.720;2023-05-07T19:26:31;8.65;;;4.03;;
34978;SDS011;21185;50.978;13.720;2023-05-07T19:31:33;6.90;;;4.43;;
34978;SDS011;21185;50.978;13.720;2023-05-07T19:36:35;8.13;;;4.28;;
34978;SDS011;21185;50.978;13.720;2023-05-07T19:41:38;8.30;;;4.70;;
34978;SDS011;21185;50.978;13.720;2023-05-07T19:46:42;7.82;;;5.03;;
34978;SDS011;21185;50.978;13.720;2023-05-07T19:51:46;8.07;;;4.70;;
34978;SDS011;21185;50.978;13.720;2023-05-07T19:56:48;7.72;;;4.32;;
34978;SDS011;21185;50.978;13.720;2023-05-07T20:01:50;7.35;;;3.97;;
34978;SDS011;21185;50.978;13.720;2023-05-07T20:06:52;7.78;;;4.35;;
34978;SDS011;21185;50.978;13.720;2023-05-07T20:11:54;6.05;;;3.72;;
34978;SDS011;21185;50.978;13.720;2023-05-07T20:16:57;6.60;;;3.63;;
34978;SDS011;21185;50.978;13.720;2023-05-07T20:21:59;6.22;;;4.15;;
34978;SDS011;21185;50.978;13.720;2023-05-07T20:27:00;7.55;;;4.50;;
34978;SDS011;21185;50.978;13.720;2023-05-07T20:32:04;8.90;;;4.63;;
34978;SDS011;21185;50.978;13.720;2023-05-07T20:37:06;7.18;;;4.50;;
34978;SDS011;21185;50.978;13.720;2023-05-07T20:42:12;8.27;;;5.20;;
34978;SDS011;21185;50.978;13.720;2023-05-07T20:47:14;7.22;;;3.90;;
34978;SDS011;21185;50.978;13.720;2023-05-07T20:52:16;10.75;;;3.88;;
34978;SDS011;21185;50.978;13.720;2023-05-07T20:57:18;5.25;;;3.30;;
34978;SDS011;21185;50.978;13.720;2023-05-07T21:02:20;7.88;;;3.95;;
34978;SDS011;21185;50.978;13.720;2023-05-07T21:07:22;5.40;;;3.78;;
34978;SDS011;21185;50.978;13.720;2023-05-07T21:12:24;11.23;;;3.03;;
34978;SDS011;21185;50.978;13.720;2023-05-07T21:17:29;10.00;;;3.55;;
34978;SDS011;21185;50.978;13.720;2023-05-07T21:22:32;7.40;;;3.88;;
34978;SDS011;21185;50.978;13.720;2023-05-07T21:27:34;9.40;;;3.80;;
34978;SDS011;21185;50.978;13.720;2023-05-07T21:32:36;6.00;;;3.40;;
34978;SDS011;21185;50.978;13.720;2023-05-07T21:37:38;6.40;;;3.88;;
34978;SDS011;21185;50.978;13.720;2023-05-07T21:42:40;4.50;;;2.70;;
34978;SDS011;21185;50.978;13.720;2023-05-07T21:47:42;5.25;;;3.30;;
34978;SDS011;21185;50.978;13.720;2023-05-07T21:52:44;6.25;;;3.83;;
34978;SDS011;21185;50.978;13.720;2023-05-07T21:57:46;5.05;;;3.20;;
34978;SDS011;21185;50.978;13.720;2023-05-07T22:03:04;6.70;;;3.65;;
34978;SDS011;21185;50.978;13.720;2023-05-07T22:08:06;9.77;;;3.60;;
34978;SDS011;21185;50.978;13.720;2023-05-07T22:13:08;7.07;;;3.80;;
34978;SDS011;21185;50.978;13.720;2023-05-07T22:18:10;5.28;;;3.30;;
34978;SDS011;21185;50.978;13.720;2023-05-07T22:23:12;5.38;;;3.38;;
34978;SDS011;21185;50.978;13.720;2023-05-07T22:28:14;5.70;;;3.33;;
34978;SDS011;21185;50.978;13.720;2023-05-07T22:33:17;6.13;;;3.40;;
34978;SDS011;21185;50.978;13.720;2023-05-07T22:38:19;6.43;;;3.75;;
34978;SDS011;21185;50.978;13.720;2023-05-07T22:43:21;6.05;;;3.58;;
34978;SDS011;21185;50.978;13.720;2023-05-07T22:48:23;6.72;;;3.42;;
34978;SDS011;21185;50.978;13.720;2023-05-07T22:53:25;7.68;;;3.85;;
34978;SDS011;21185;50.978;13.720;2023-05-07T22:58:27;6.07;;;3.08;;
34978;SDS011;21185;50.978;13.720;2023-05-07T23:03:28;7.65;;;3.95;;
34978;SDS011;21185;50.978;13.720;2023-05-07T23:08:31;4.53;;;3.05;;
34978;SDS011;21185;50.978;13.720;2023-05-07T23:13:32;6.72;;;3.70;;
34978;SDS011;21185;50.978;13.720;2023-05-07T23:18:34;7.13;;;3.55;;
34978;SDS011;21185;50.978;13.720;2023-05-07T23:23:36;7.85;;;3.55;;
34978;SDS011;21185;50.978;13.720;2023-05-07T23:28:38;6.80;;;3.25;;
34978;SDS011;21185;50.978;13.720;2023-05-07T23:33:40;5.53;;;3.15;;
34978;SDS011;21185;50.978;13.720;2023-05-07T23:38:42;6.38;;;3.15;;
34978;SDS011;21185;50.978;13.720;2023-05-07T23:43:44;4.72;;;3.42;;
34978;SDS011;21185;50.978;13.720;2023-05-07T23:48:46;5.60;;;3.00;;
34978;SDS011;21185;50.978;13.720;2023-05-07T23:53:48;5.40;;;3.33;;
34978;SDS011;21185;50.978;13.720;2023-05-07T23:58:49;6.25;;;3.80;;
